.
WxDataArchive / Data Records for 2013-09-05
2013-09-04 September 2013 2013-09-06

Data Records for Thursday, 05 September 2013

Time	Temp	Chill	HIndex	Humid	Dewpt	 Wind 	HiWind	WindDir	Rain 	Barom 
-----	----	-----	------	-----	-----	------	------	-------	-----	----- 
00:00	62.4	62.4	62.4	80	56.1	0	0	---	0.00	30.091 
00:05	62.3	62.3	62.3	81	56.4	0	0	---	0.00	30.091 
00:10	62.1	62.1	62.1	81	56.2	0	0	---	0.00	30.091 
00:15	62.0	62.0	62.0	81	56.1	0	0	---	0.00	30.087 
00:20	61.8	61.8	61.8	81	55.9	0	0	---	0.00	30.087 
00:25	61.8	61.8	61.8	81	55.9	0	0	---	0.00	30.087 
00:30	61.8	61.8	61.8	81	55.9	0	0	---	0.00	30.087 
00:35	61.6	61.6	61.6	81	55.7	0	0	---	0.00	30.087 
00:40	61.6	61.6	61.6	81	55.7	0	0	---	0.00	30.087 
00:45	61.5	61.5	61.5	81	55.6	0	0	---	0.00	30.087 
00:50	61.5	61.5	61.5	81	55.6	0	0	---	0.00	30.087 
00:55	61.3	61.3	61.3	81	55.4	0	0	---	0.00	30.087 
01:00	61.3	61.3	61.3	80	55.1	0	0	---	0.00	30.093 
01:05	61.2	61.2	61.2	81	55.3	0	0	---	0.00	30.093 
01:10	61.0	61.0	61.0	81	55.1	0	0	---	0.00	30.093 
01:15	61.0	61.0	61.0	81	55.1	0	0	---	0.00	30.091 
01:20	60.9	60.9	60.9	81	55.0	0	0	---	0.00	30.091 
01:25	60.7	60.7	60.7	81	54.8	0	0	---	0.00	30.091 
01:30	60.7	60.7	60.7	81	54.8	0	0	---	0.00	30.087 
01:35	60.5	60.5	60.5	82	55.0	0	0	---	0.00	30.087 
01:40	60.4	60.4	60.4	82	54.9	0	0	---	0.00	30.087 
01:45	60.2	60.2	60.2	82	54.7	0	0	---	0.00	30.095 
01:50	60.1	60.1	60.1	83	54.9	0	0	---	0.00	30.095 
01:55	60.1	60.1	60.1	83	54.9	0	0	---	0.00	30.095 
02:00	59.9	59.9	59.9	83	54.7	0	0	---	0.00	30.098 
02:05	59.8	59.8	59.8	84	55.0	0	0	---	0.00	30.098 
02:10	59.6	59.6	59.6	84	54.8	0	0	---	0.00	30.098 
02:15	59.6	59.6	59.6	84	54.8	0	0	---	0.00	30.095 
02:20	59.5	59.5	59.5	84	54.7	0	0	---	0.00	30.095 
02:25	59.5	59.5	59.5	84	54.7	0	0	---	0.00	30.095 
02:30	59.3	59.3	59.3	85	54.8	0	0	---	0.00	30.099 
02:35	59.3	59.3	59.3	85	54.8	0	0	---	0.00	30.099 
02:40	59.2	59.2	59.2	85	54.7	0	0	---	0.00	30.099 
02:45	59.2	59.2	59.2	85	54.7	0	0	---	0.00	30.102 
02:50	59.0	59.0	59.0	85	54.5	0	0	---	0.00	30.102 
02:55	59.0	59.0	59.0	86	54.8	0	0	---	0.00	30.102 
03:00	58.9	58.9	58.9	86	54.7	0	0	---	0.00	30.106 
03:05	58.9	58.9	58.9	86	54.7	0	0	---	0.00	30.106 
03:10	58.7	58.7	58.7	86	54.5	0	0	---	0.00	30.106 
03:15	58.7	58.7	58.7	86	54.5	0	0	---	0.00	30.103 
03:20	58.7	58.7	58.7	87	54.8	0	0	---	0.00	30.103 
03:25	58.7	58.7	58.7	87	54.8	0	0	---	0.00	30.103 
03:30	58.7	58.7	58.7	87	54.8	0	0	---	0.00	30.098 
03:35	58.9	58.9	58.9	87	55.0	0	0	---	0.00	30.098 
03:40	59.2	59.2	59.2	87	55.3	0	0	---	0.00	30.098 
03:45	59.3	59.3	59.3	87	55.4	0	0	---	0.00	30.099 
03:50	59.5	59.5	59.5	86	55.3	0	0	---	0.00	30.099 
03:55	59.5	59.5	59.5	86	55.3	0	0	---	0.00	30.099 
04:00	59.5	59.5	59.5	86	55.3	0	0	---	0.00	30.098 
04:05	59.3	59.3	59.3	86	55.1	0	0	---	0.00	30.098 
04:10	59.3	59.3	59.3	86	55.1	0	0	---	0.00	30.098 
04:15	59.2	59.2	59.2	86	55.0	0	0	---	0.00	30.102 
04:20	59.2	59.2	59.2	86	55.0	0	0	---	0.00	30.102 
04:25	59.2	59.2	59.2	86	55.0	0	0	---	0.00	30.102 
04:30	59.2	59.2	59.2	86	55.0	0	0	---	0.00	30.102 
04:35	59.2	59.2	59.2	86	55.0	0	0	---	0.00	30.102 
04:40	59.0	59.0	59.0	86	54.8	0	0	---	0.00	30.102 
04:45	59.0	59.0	59.0	86	54.8	0	0	---	0.00	30.111 
04:50	58.9	58.9	58.9	86	54.7	0	0	---	0.00	30.111 
04:55	58.9	58.9	58.9	86	54.7	0	0	---	0.00	30.111 
05:00	58.7	58.7	58.7	86	54.5	0	0	---	0.00	30.116 
05:05	58.6	58.6	58.6	86	54.4	0	0	---	0.00	30.116 
05:10	58.6	58.6	58.6	86	54.4	0	0	---	0.00	30.116 
05:15	58.4	58.4	58.4	87	54.5	0	0	---	0.00	30.122 
05:20	58.3	58.3	58.3	87	54.4	0	0	---	0.00	30.122 
05:25	58.3	58.3	58.3	87	54.4	0	0	---	0.00	30.122 
05:30	58.3	58.3	58.3	87	54.4	0	0	---	0.00	30.128 
05:35	58.3	58.3	58.3	87	54.4	0	0	---	0.00	30.128 
05:40	58.1	58.1	58.1	88	54.6	0	0	---	0.00	30.128 
05:45	58.1	58.1	58.1	88	54.6	0	0	---	0.00	30.131 
05:50	58.0	58.0	58.0	88	54.5	0	0	---	0.00	30.131 
05:55	58.0	58.0	58.0	88	54.5	0	0	---	0.00	30.131 
06:00	58.0	58.0	58.0	88	54.5	0	0	---	0.00	30.132 
06:05	58.0	58.0	58.0	88	54.5	0	0	---	0.00	30.132 
06:10	58.0	58.0	58.0	88	54.5	0	0	---	0.00	30.132 
06:15	58.0	58.0	58.0	88	54.5	0	0	---	0.00	30.134 
06:20	58.0	58.0	58.0	88	54.5	0	0	---	0.00	30.134 
06:25	58.0	58.0	58.0	89	54.8	0	0	---	0.00	30.134 
06:30	58.1	58.1	58.1	89	54.9	0	0	---	0.00	30.144 
06:35	58.4	58.4	58.4	89	55.2	0	0	---	0.00	30.144 
06:40	58.7	58.7	58.7	90	55.8	0	0	---	0.00	30.144 
06:45	58.9	58.9	58.9	90	56.0	0	0	---	0.00	30.147 
06:50	59.0	59.0	59.0	90	56.1	0	0	---	0.00	30.147 
06:55	59.0	59.0	59.0	90	56.1	0	0	---	0.00	30.147 
07:00	59.0	59.0	59.0	90	56.1	0	0	---	0.00	30.158 
07:05	59.0	59.0	59.0	90	56.1	0	0	---	0.00	30.158 
07:10	59.2	59.2	59.2	90	56.3	0	1	315	0.00	30.158 
07:15	59.2	59.2	59.2	90	56.3	0	0	---	0.00	30.162 
07:20	59.3	59.3	59.3	90	56.4	0	0	---	0.00	30.162 
07:25	59.3	59.3	59.3	91	56.7	0	0	---	0.00	30.162 
07:30	59.6	59.6	59.6	91	57.0	0	0	---	0.00	30.169 
07:35	59.8	59.8	59.8	91	57.2	0	0	---	0.00	30.169 
07:40	59.8	59.8	59.8	91	57.2	0	0	---	0.00	30.169 
07:45	59.9	59.9	59.9	91	57.3	0	1	315	0.00	30.175 
07:50	59.9	59.9	59.9	91	57.3	0	0	---	0.00	30.175 
07:55	60.2	60.2	60.2	91	57.6	0	0	---	0.00	30.175 
08:00	60.4	60.4	60.4	90	57.4	0	1	315	0.00	30.177 
08:05	60.5	60.5	60.5	90	57.5	0	1	315	0.00	30.177 
08:10	60.7	60.7	60.7	90	57.7	0	1	315	0.00	30.177 
08:15	60.9	60.9	60.9	90	57.9	0	0	---	0.00	30.182 
08:20	61.2	61.2	61.2	90	58.2	0	1	315	0.00	30.182 
08:25	61.3	61.3	61.3	89	58.0	0	1	315	0.00	30.182 
08:30	61.5	61.5	61.5	87	57.6	0	1	315	0.00	30.184 
08:35	61.6	61.6	61.6	86	57.4	0	2	315	0.00	30.184 
08:40	61.8	61.8	61.8	83	56.6	0	2	315	0.00	30.184 
08:45	62.0	62.0	62.0	81	56.1	0	3	315	0.00	30.181 
08:50	62.3	62.3	62.3	79	55.7	0	2	338	0.00	30.181 
08:55	62.7	62.7	62.7	77	55.4	0	3	270	0.00	30.181 
09:00	63.1	63.1	63.1	76	55.4	0	1	270	0.00	30.183 
09:05	63.2	63.2	63.2	73	54.4	1	4	270	0.00	30.183 
09:10	63.5	63.5	63.5	71	53.9	0	2	270	0.00	30.183 
09:15	63.9	63.9	63.9	71	54.3	0	2	270	0.00	30.185 
09:20	64.0	64.0	64.0	70	54.0	0	2	270	0.00	30.185 
09:25	64.2	64.2	64.2	65	52.2	2	6	90	0.00	30.185 
09:30	64.5	64.5	64.5	66	52.9	1	4	90	0.00	30.187 
09:35	64.7	64.7	64.7	66	53.1	1	5	90	0.00	30.187 
09:40	65.0	65.0	65.0	64	52.5	2	5	112	0.00	30.187 
09:45	65.3	65.3	65.3	63	52.4	2	5	112	0.00	30.194 
09:50	65.3	65.3	65.3	64	52.8	1	4	90	0.00	30.194 
09:55	65.5	65.5	65.5	63	52.6	1	4	90	0.00	30.194 
10:00	65.8	65.8	65.8	62	52.4	1	3	90	0.00	30.199 
10:05	66.1	66.1	66.1	61	52.3	2	5	112	0.00	30.199 
10:10	66.4	66.4	66.4	62	53.0	2	6	90	0.00	30.199 
10:15	66.9	66.9	66.9	62	53.4	1	5	135	0.00	30.207 
10:20	67.4	67.4	67.4	62	53.9	1	4	112	0.00	30.207 
10:25	68.1	68.1	68.1	60	53.7	1	4	90	0.00	30.207 
10:30	68.6	68.6	68.6	57	52.7	3	7	90	0.00	30.212 
10:35	68.8	68.8	68.8	56	52.5	2	4	90	0.00	30.212 
10:40	69.3	69.3	69.3	54	51.9	1	5	90	0.00	30.212 
10:45	69.8	69.8	69.8	49	49.8	2	6	112	0.00	30.209 
10:50	69.9	69.9	69.9	50	50.4	3	6	90	0.00	30.209 
10:55	69.9	69.9	69.9	49	49.9	2	6	90	0.00	30.209 
11:00	70.3	70.3	70.3	48	49.7	3	5	112	0.00	30.210 
11:05	70.9	70.9	70.9	50	51.3	1	3	112	0.00	30.210 
11:10	71.1	71.1	71.1	45	48.7	3	6	112	0.00	30.210 
11:15	71.3	71.3	71.3	42	47.0	2	5	112	0.00	30.215 
11:20	71.3	71.3	71.3	42	47.0	1	3	292	0.00	30.215 
11:25	72.0	72.0	72.0	40	46.3	1	5	112	0.00	30.215 
11:30	72.7	72.7	72.7	39	46.3	2	5	90	0.00	30.214 
11:35	72.8	72.8	72.8	39	46.4	1	5	22	0.00	30.214 
11:40	72.8	72.8	72.8	37	45.0	1	6	315	0.00	30.214 
11:45	73.0	73.0	73.0	36	44.5	1	3	315	0.00	30.215 
11:50	73.2	73.2	73.2	35	43.9	2	7	112	0.00	30.215 
11:55	73.0	73.0	73.0	35	43.7	3	6	112	0.00	30.215 
12:00	73.3	73.3	73.3	35	44.0	2	4	112	0.00	30.214 
12:05	73.7	73.7	73.7	35	44.3	2	6	112	0.00	30.214 
12:10	73.7	73.7	73.7	35	44.3	2	7	112	0.00	30.214 
12:15	73.9	73.9	73.9	35	44.5	2	7	90	0.00	30.213 
12:20	74.7	74.7	74.7	36	46.0	1	3	90	0.00	30.213 
12:25	75.1	75.1	77.3	36	46.3	1	5	90	0.00	30.213 
12:30	75.3	75.3	77.4	36	46.5	1	5	135	0.00	30.213 
12:35	75.4	75.4	77.4	35	45.8	2	5	90	0.00	30.213 
12:40	75.1	75.1	77.3	35	45.6	1	3	112	0.00	30.213 
12:45	74.7	74.7	74.7	34	44.4	1	3	135	0.00	30.215 
12:50	75.1	75.1	77.3	35	45.6	1	3	68	0.00	30.215 
12:55	75.3	75.3	77.2	33	44.2	1	3	68	0.00	30.215 
13:00	75.3	75.3	77.3	34	45.0	1	5	68	0.00	30.213 
13:05	75.4	75.4	77.4	36	46.6	1	3	22	0.00	30.213 
13:10	75.8	75.8	77.4	33	44.6	2	5	315	0.00	30.213 
13:15	75.8	75.8	77.4	33	44.6	1	4	112	0.00	30.211 
13:20	75.8	75.8	77.5	34	45.4	1	4	112	0.00	30.211 
13:25	76.0	76.0	77.7	37	47.8	1	5	112	0.00	30.211 
13:30	76.0	76.0	77.5	33	44.8	1	3	22	0.00	30.208 
13:35	76.0	76.0	77.5	33	44.8	1	3	338	0.00	30.208 
13:40	76.0	76.0	77.5	33	44.8	1	3	338	0.00	30.208 
13:45	76.5	76.5	77.7	33	45.2	1	5	90	0.00	30.202 
13:50	77.0	77.0	77.7	31	44.0	2	6	112	0.00	30.202 
13:55	77.2	77.2	77.9	32	45.0	1	4	90	0.00	30.202 
14:00	77.4	77.4	78.0	32	45.2	1	4	0	0.00	30.200 
14:05	77.7	77.7	78.1	32	45.5	1	3	112	0.00	30.200 
14:10	78.1	78.1	78.2	31	45.0	0	3	270	0.00	30.200 
14:15	78.5	78.5	78.4	30	44.5	1	4	225	0.00	30.195 
14:20	78.5	78.5	78.5	32	46.2	1	5	112	0.00	30.195 
14:25	78.5	78.5	78.7	35	48.5	2	4	68	0.00	30.195 
14:30	78.6	78.6	78.5	32	46.3	1	4	112	0.00	30.189 
14:35	78.3	78.3	78.3	30	44.3	1	2	112	0.00	30.189 
14:40	78.6	78.6	78.5	31	45.4	1	2	112	0.00	30.189 
14:45	78.6	78.6	78.5	32	46.3	1	7	112	0.00	30.180 
14:50	79.0	79.0	78.8	32	46.6	2	5	90	0.00	30.180 
14:55	78.8	78.8	78.8	35	48.8	1	5	315	0.00	30.180 
15:00	79.2	79.2	78.9	33	47.6	1	3	135	0.00	30.178 
15:05	79.4	79.4	79.0	32	46.9	1	4	112	0.00	30.178 
15:10	79.4	79.4	79.0	32	46.9	0	2	112	0.00	30.178 
15:15	79.6	79.6	79.0	31	46.3	1	3	112	0.00	30.175 
15:20	79.0	79.0	78.6	30	44.9	2	3	292	0.00	30.175 
15:25	79.2	79.2	78.8	31	45.9	1	3	45	0.00	30.175 
15:30	79.4	79.4	78.7	28	43.4	2	5	45	0.00	30.172 
15:35	79.4	79.4	78.7	28	43.4	1	4	0	0.00	30.172 
15:40	79.2	79.2	78.5	26	41.3	1	5	315	0.00	30.172 
15:45	78.8	78.8	78.3	26	41.0	1	4	315	0.00	30.173 
15:50	79.0	79.0	78.2	24	39.1	1	5	315	0.00	30.173 
15:55	79.2	79.2	78.3	23	38.2	1	3	315	0.00	30.173 
16:00	79.6	79.6	78.6	24	39.6	1	3	315	0.00	30.168 
16:05	79.8	79.8	78.5	20	35.1	1	4	338	0.00	30.168 
16:10	79.6	79.6	78.5	22	37.4	1	4	0	0.00	30.168 
16:15	79.8	79.8	78.5	20	35.1	1	4	0	0.00	30.168 
16:20	79.6	79.6	78.5	22	37.4	1	3	135	0.00	30.168 
16:25	79.6	79.6	78.4	21	36.2	1	4	112	0.00	30.168 
16:30	79.6	79.6	78.3	20	35.0	1	3	112	0.00	30.167 
16:35	79.4	79.4	78.2	19	33.5	1	4	112	0.00	30.167 
16:40	79.2	79.2	78.1	20	34.7	0	2	338	0.00	30.167 
16:45	79.2	79.2	78.2	21	35.9	0	2	338	0.00	30.166 
16:50	79.4	79.4	78.2	20	34.8	0	3	338	0.00	30.166 
16:55	79.4	79.4	78.3	21	36.0	1	3	0	0.00	30.166 
17:00	79.4	79.4	78.3	21	36.0	1	4	315	0.00	30.168 
17:05	79.4	79.4	78.2	20	34.8	0	2	315	0.00	30.168 
17:10	79.2	79.2	78.1	20	34.7	0	3	135	0.00	30.168 
17:15	79.2	79.2	78.1	20	34.7	1	4	112	0.00	30.171 
17:20	79.0	79.0	77.9	19	33.2	0	4	0	0.00	30.171 
17:25	78.8	78.8	77.8	19	33.0	1	5	45	0.00	30.171 
17:30	78.6	78.6	77.7	19	32.9	1	5	112	0.00	30.174 
17:35	78.5	78.5	77.6	19	32.8	1	5	338	0.00	30.174 
17:40	78.3	78.3	77.5	19	32.6	1	4	315	0.00	30.174 
17:45	78.3	78.3	77.5	19	32.6	0	2	315	0.00	30.174 
17:50	78.3	78.3	77.5	19	32.6	1	4	315	0.00	30.174 
17:55	77.9	77.9	77.3	19	32.3	1	5	90	0.00	30.174 
18:00	77.6	77.6	77.2	19	32.1	1	5	90	0.00	30.173 
18:05	77.4	77.4	77.0	19	31.9	1	3	90	0.00	30.173 
18:10	77.0	77.0	76.8	19	31.6	1	5	112	0.00	30.173 
18:15	76.7	76.7	76.8	20	32.6	1	4	112	0.00	30.175 
18:20	76.5	76.5	76.6	19	31.2	1	4	90	0.00	30.175 
18:25	76.3	76.3	76.5	19	31.0	1	4	90	0.00	30.175 
18:30	76.1	76.1	76.4	19	30.8	1	6	135	0.00	30.176 
18:35	76.0	76.0	76.4	20	32.0	1	2	135	0.00	30.176 
18:40	76.0	76.0	76.4	20	32.0	1	3	135	0.00	30.176 
18:45	76.0	76.0	76.6	22	34.4	0	2	0	0.00	30.182 
18:50	75.8	75.8	76.4	21	33.1	0	2	0	0.00	30.182 
18:55	75.6	75.6	76.4	21	32.9	0	2	0	0.00	30.182 
19:00	75.4	75.4	76.3	21	32.7	0	2	0	0.00	30.179 
19:05	75.3	75.3	76.2	21	32.7	0	1	0	0.00	30.179 
19:10	74.9	74.9	74.9	22	33.5	0	2	0	0.00	30.179 
19:15	74.6	74.6	74.6	22	33.2	0	1	0	0.00	30.179 
19:20	74.2	74.2	74.2	23	34.0	0	1	0	0.00	30.179 
19:25	73.9	73.9	73.9	23	33.8	0	1	0	0.00	30.179 
19:30	73.5	73.5	73.5	23	33.4	0	2	0	0.00	30.172 
19:35	73.3	73.3	73.3	24	34.3	0	1	0	0.00	30.172 
19:40	73.0	73.0	73.0	25	35.1	0	0	---	0.00	30.172 
19:45	72.7	72.7	72.7	26	35.8	0	0	---	0.00	30.175 
19:50	72.1	72.1	72.1	27	36.3	0	0	---	0.00	30.175 
19:55	71.8	71.8	71.8	28	36.9	0	1	0	0.00	30.175 
20:00	71.3	71.3	71.3	28	36.5	1	3	68	0.00	30.183 
20:05	70.8	70.8	70.8	29	37.0	1	4	68	0.00	30.183 
20:10	70.4	70.4	70.4	30	37.5	0	2	68	0.00	30.183 
20:15	69.9	69.9	69.9	31	37.9	0	1	68	0.00	30.182 
20:20	69.4	69.4	69.4	32	38.3	0	1	68	0.00	30.182 
20:25	68.9	68.9	68.9	33	38.6	0	1	68	0.00	30.182 
20:30	68.4	68.4	68.4	34	38.9	0	0	---	0.00	30.184 
20:35	67.9	67.9	67.9	34	38.5	0	1	68	0.00	30.184 
20:40	67.6	67.6	67.6	35	39.0	0	1	68	0.00	30.184 
20:45	67.3	67.3	67.3	35	38.7	0	1	68	0.00	30.189 
20:50	66.9	66.9	66.9	36	39.1	0	1	68	0.00	30.189 
20:55	66.6	66.6	66.6	36	38.8	0	1	68	0.00	30.189 
21:00	66.3	66.3	66.3	36	38.5	0	3	68	0.00	30.195 
21:05	66.1	66.1	66.1	37	39.1	0	1	68	0.00	30.195 
21:10	66.0	66.0	66.0	37	39.0	0	1	68	0.00	30.195 
21:15	65.8	65.8	65.8	36	38.1	1	3	68	0.00	30.199 
21:20	65.8	65.8	65.8	37	38.8	0	2	68	0.00	30.199 
21:25	65.8	65.8	65.8	38	39.5	0	1	68	0.00	30.199 
21:30	65.6	65.6	65.6	38	39.3	0	2	68	0.00	30.200 
21:35	65.5	65.5	65.5	39	39.9	0	1	68	0.00	30.200 
21:40	65.2	65.2	65.2	40	40.3	0	1	68	0.00	30.200 
21:45	64.8	64.8	64.8	41	40.5	0	2	68	0.00	30.204 
21:50	64.7	64.7	64.7	42	41.1	0	1	68	0.00	30.204 
21:55	64.3	64.3	64.3	42	40.7	0	2	68	0.00	30.204 
22:00	64.2	64.2	64.2	43	41.2	0	1	68	0.00	30.212 
22:05	63.9	63.9	63.9	43	41.0	0	0	---	0.00	30.212 
22:10	63.4	63.4	63.4	44	41.1	0	0	---	0.00	30.212 
22:15	63.1	63.1	63.1	45	41.4	0	0	---	0.00	30.210 
22:20	62.7	62.7	62.7	46	41.6	0	0	---	0.00	30.210 
22:25	62.3	62.3	62.3	46	41.3	0	0	---	0.00	30.210 
22:30	62.0	62.0	62.0	48	42.1	0	0	---	0.00	30.214 
22:35	61.6	61.6	61.6	49	42.3	0	0	---	0.00	30.214 
22:40	61.3	61.3	61.3	50	42.5	0	0	---	0.00	30.214 
22:45	60.9	60.9	60.9	50	42.1	0	0	---	0.00	30.218 
22:50	60.5	60.5	60.5	51	42.3	0	0	---	0.00	30.218 
22:55	60.2	60.2	60.2	51	42.0	0	0	---	0.00	30.218 
23:00	59.9	59.9	59.9	53	42.7	0	0	---	0.00	30.226 
23:05	59.8	59.8	59.8	52	42.1	0	0	---	0.00	30.226 
23:10	59.6	59.6	59.6	52	42.0	0	0	---	0.00	30.226 
23:15	59.6	59.6	59.6	53	42.4	0	0	---	0.00	30.219 
23:20	59.6	59.6	59.6	54	42.9	0	0	---	0.00	30.219 
23:25	59.5	59.5	59.5	54	42.8	0	0	---	0.00	30.219 
23:30	59.5	59.5	59.5	54	42.8	0	0	---	0.00	30.218 
23:35	59.3	59.3	59.3	55	43.1	0	0	---	0.00	30.218 
23:40	59.2	59.2	59.2	55	43.0	0	0	---	0.00	30.218 
23:45	59.0	59.0	59.0	56	43.3	0	0	---	0.00	30.220 
23:50	58.9	58.9	58.9	57	43.7	0	0	---	0.00	30.220 
23:55	58.6	58.6	58.6	58	43.9	0	0	---	0.00	30.220 

CoCoRaHS
IN-AL-39
A2 Web Hosting
Creative Commons License
GoDaddy
search engine by freefind advanced

loaded 2018-11-15 17:44:47 • last modified 2010-11-18 10:43:29
Privacy PolicyDisclaimer
• wx.awcolley.com is powered by PmWiki v.2002016 •
• all content (unless otherwise noted) © 2018 A W Colley